Fairfield, North Carolina
Current Conditions -  °F | °C
As of 2:56 PM on Thursday 30 Oct 2014 (Local Time) from K2DP Reporting Station
Scattered Clouds Scattered Clouds  
Wind Chill: 65°   Ceiling: Unl
Heat Index: 65°   Visibility: 10mi
Dew Point: 48°   Wind: 12mph
Humidity: 53%   Direction: 50°NE
Pressure: 29.97"   Gusts: 18mph
Location:  35.54°N, 76.22°W
Report Text: K2DP 301856Z AUTO 05010G16KT 10SM SCT040 19/09 A2997 RMK AO2 SLPNO T01860087
Loading
Personal Weather Stations






























Interactive Weather Map
Tropical Storm Tracking
New forecast layout! Learn more

10-Day Weather Forecast

Advertisements
Track Severe Weather on mobile